sensor_id;sensor_type;location;lat;lon;timestamp;P1;durP1;ratioP1;P2;durP2;ratioP2
55827;SDS011;41758;51.992;5.890;2023-12-20T00:00:36;10.75;;;3.13;;
55827;SDS011;41758;51.992;5.890;2023-12-20T00:03:02;12.77;;;3.30;;
55827;SDS011;41758;51.992;5.890;2023-12-20T00:05:29;6.78;;;2.75;;
55827;SDS011;41758;51.992;5.890;2023-12-20T00:07:57;7.35;;;3.25;;
55827;SDS011;41758;51.992;5.890;2023-12-20T00:10:23;11.95;;;3.10;;
55827;SDS011;41758;51.992;5.890;2023-12-20T00:12:48;9.02;;;3.30;;
55827;SDS011;41758;51.992;5.890;2023-12-20T00:15:14;10.68;;;3.70;;
55827;SDS011;41758;51.992;5.890;2023-12-20T00:17:40;10.35;;;3.38;;
55827;SDS011;41758;51.992;5.890;2023-12-20T00:20:06;7.68;;;3.45;;
55827;SDS011;41758;51.992;5.890;2023-12-20T00:22:32;10.07;;;3.30;;
55827;SDS011;41758;51.992;5.890;2023-12-20T00:24:58;9.40;;;3.33;;
55827;SDS011;41758;51.992;5.890;2023-12-20T00:27:23;11.82;;;3.60;;
55827;SDS011;41758;51.992;5.890;2023-12-20T00:29:49;13.35;;;4.30;;
55827;SDS011;41758;51.992;5.890;2023-12-20T00:32:15;10.85;;;3.42;;
55827;SDS011;41758;51.992;5.890;2023-12-20T00:34:42;10.05;;;3.63;;
55827;SDS011;41758;51.992;5.890;2023-12-20T00:37:08;11.38;;;3.83;;
55827;SDS011;41758;51.992;5.890;2023-12-20T00:39:33;11.68;;;4.05;;
55827;SDS011;41758;51.992;5.890;2023-12-20T00:41:59;9.82;;;3.42;;
55827;SDS011;41758;51.992;5.890;2023-12-20T00:44:25;15.13;;;4.15;;
55827;SDS011;41758;51.992;5.890;2023-12-20T00:46:51;10.07;;;3.65;;
55827;SDS011;41758;51.992;5.890;2023-12-20T00:49:17;13.70;;;3.83;;
55827;SDS011;41758;51.992;5.890;2023-12-20T00:51:43;15.00;;;3.80;;
55827;SDS011;41758;51.992;5.890;2023-12-20T00:54:08;12.65;;;4.15;;
55827;SDS011;41758;51.992;5.890;2023-12-20T00:56:34;13.23;;;4.05;;
55827;SDS011;41758;51.992;5.890;2023-12-20T00:59:00;11.48;;;4.03;;
55827;SDS011;41758;51.992;5.890;2023-12-20T01:01:26;7.20;;;3.15;;
55827;SDS011;41758;51.992;5.890;2023-12-20T01:03:52;10.32;;;3.80;;
55827;SDS011;41758;51.992;5.890;2023-12-20T01:06:18;10.18;;;3.40;;
55827;SDS011;41758;51.992;5.890;2023-12-20T01:08:44;10.73;;;3.70;;
55827;SDS011;41758;51.992;5.890;2023-12-20T01:11:10;12.88;;;4.20;;
55827;SDS011;41758;51.992;5.890;2023-12-20T01:13:35;12.73;;;3.30;;
55827;SDS011;41758;51.992;5.890;2023-12-20T01:16:01;12.20;;;3.80;;
55827;SDS011;41758;51.992;5.890;2023-12-20T01:18:27;12.45;;;3.83;;
55827;SDS011;41758;51.992;5.890;2023-12-20T01:20:53;15.88;;;4.18;;
55827;SDS011;41758;51.992;5.890;2023-12-20T01:23:19;11.18;;;3.72;;
55827;SDS011;41758;51.992;5.890;2023-12-20T01:25:44;9.82;;;3.72;;
55827;SDS011;41758;51.992;5.890;2023-12-20T01:28:10;10.25;;;3.95;;
55827;SDS011;41758;51.992;5.890;2023-12-20T01:30:36;10.38;;;3.50;;
55827;SDS011;41758;51.992;5.890;2023-12-20T01:33:02;14.57;;;4.05;;
55827;SDS011;41758;51.992;5.890;2023-12-20T01:35:28;14.85;;;4.43;;
55827;SDS011;41758;51.992;5.890;2023-12-20T01:37:54;13.45;;;4.07;;
55827;SDS011;41758;51.992;5.890;2023-12-20T01:40:22;12.68;;;4.03;;
55827;SDS011;41758;51.992;5.890;2023-12-20T01:42:57;14.43;;;3.85;;
55827;SDS011;41758;51.992;5.890;2023-12-20T01:45:40;10.60;;;2.90;;
55827;SDS011;41758;51.992;5.890;2023-12-20T01:48:06;11.55;;;3.50;;
55827;SDS011;41758;51.992;5.890;2023-12-20T01:50:33;16.23;;;3.40;;
55827;SDS011;41758;51.992;5.890;2023-12-20T01:53:03;18.75;;;4.28;;
55827;SDS011;41758;51.992;5.890;2023-12-20T01:55:33;17.20;;;4.40;;
55827;SDS011;41758;51.992;5.890;2023-12-20T01:58:01;16.98;;;3.72;;
55827;SDS011;41758;51.992;5.890;2023-12-20T02:00:28;13.77;;;4.15;;
55827;SDS011;41758;51.992;5.890;2023-12-20T02:02:55;14.52;;;4.20;;
55827;SDS011;41758;51.992;5.890;2023-12-20T02:05:21;11.93;;;3.50;;
55827;SDS011;41758;51.992;5.890;2023-12-20T02:07:47;18.75;;;3.88;;
55827;SDS011;41758;51.992;5.890;2023-12-20T02:10:13;15.38;;;4.10;;
55827;SDS011;41758;51.992;5.890;2023-12-20T02:12:40;11.98;;;3.88;;
55827;SDS011;41758;51.992;5.890;2023-12-20T02:15:06;11.05;;;3.33;;
55827;SDS011;41758;51.992;5.890;2023-12-20T02:17:32;14.23;;;4.28;;
55827;SDS011;41758;51.992;5.890;2023-12-20T02:19:58;14.45;;;3.88;;
55827;SDS011;41758;51.992;5.890;2023-12-20T02:22:24;11.27;;;3.70;;
55827;SDS011;41758;51.992;5.890;2023-12-20T02:24:50;12.82;;;4.00;;
55827;SDS011;41758;51.992;5.890;2023-12-20T02:27:17;16.48;;;4.05;;
55827;SDS011;41758;51.992;5.890;2023-12-20T02:29:44;10.23;;;3.67;;
55827;SDS011;41758;51.992;5.890;2023-12-20T02:32:13;16.75;;;4.38;;
55827;SDS011;41758;51.992;5.890;2023-12-20T02:34:39;14.38;;;4.65;;
55827;SDS011;41758;51.992;5.890;2023-12-20T02:37:04;13.75;;;3.78;;
55827;SDS011;41758;51.992;5.890;2023-12-20T02:39:30;20.15;;;4.95;;
55827;SDS011;41758;51.992;5.890;2023-12-20T02:41:55;14.00;;;4.10;;
55827;SDS011;41758;51.992;5.890;2023-12-20T02:44:21;15.70;;;4.47;;
55827;SDS011;41758;51.992;5.890;2023-12-20T02:46:47;14.60;;;4.60;;
55827;SDS011;41758;51.992;5.890;2023-12-20T02:49:13;17.48;;;4.85;;
55827;SDS011;41758;51.992;5.890;2023-12-20T02:51:38;14.45;;;4.30;;
55827;SDS011;41758;51.992;5.890;2023-12-20T02:54:04;17.98;;;4.43;;
55827;SDS011;41758;51.992;5.890;2023-12-20T02:56:31;17.52;;;4.47;;
55827;SDS011;41758;51.992;5.890;2023-12-20T02:58:57;10.73;;;4.03;;
55827;SDS011;41758;51.992;5.890;2023-12-20T03:01:23;12.30;;;3.75;;
55827;SDS011;41758;51.992;5.890;2023-12-20T03:03:49;12.85;;;4.40;;
55827;SDS011;41758;51.992;5.890;2023-12-20T03:06:16;14.30;;;4.50;;
55827;SDS011;41758;51.992;5.890;2023-12-20T03:08:43;11.60;;;4.35;;
55827;SDS011;41758;51.992;5.890;2023-12-20T03:11:08;14.55;;;4.60;;
55827;SDS011;41758;51.992;5.890;2023-12-20T03:13:34;18.00;;;4.93;;
55827;SDS011;41758;51.992;5.890;2023-12-20T03:15:59;12.55;;;3.80;;
55827;SDS011;41758;51.992;5.890;2023-12-20T03:18:25;15.52;;;5.35;;
55827;SDS011;41758;51.992;5.890;2023-12-20T03:20:53;16.20;;;5.38;;
55827;SDS011;41758;51.992;5.890;2023-12-20T03:23:18;20.23;;;5.68;;
55827;SDS011;41758;51.992;5.890;2023-12-20T03:25:44;14.63;;;4.95;;
55827;SDS011;41758;51.992;5.890;2023-12-20T03:28:10;19.13;;;5.20;;
55827;SDS011;41758;51.992;5.890;2023-12-20T03:30:35;17.73;;;4.55;;
55827;SDS011;41758;51.992;5.890;2023-12-20T03:33:01;17.63;;;4.82;;
55827;SDS011;41758;51.992;5.890;2023-12-20T03:35:27;15.52;;;4.32;;
55827;SDS011;41758;51.992;5.890;2023-12-20T03:37:52;12.05;;;4.03;;
55827;SDS011;41758;51.992;5.890;2023-12-20T03:40:18;21.92;;;4.57;;
55827;SDS011;41758;51.992;5.890;2023-12-20T03:42:44;15.02;;;4.32;;
55827;SDS011;41758;51.992;5.890;2023-12-20T03:45:09;14.63;;;4.75;;
55827;SDS011;41758;51.992;5.890;2023-12-20T03:47:35;13.88;;;4.53;;
55827;SDS011;41758;51.992;5.890;2023-12-20T03:50:01;16.90;;;4.82;;
55827;SDS011;41758;51.992;5.890;2023-12-20T03:52:27;15.52;;;4.35;;
55827;SDS011;41758;51.992;5.890;2023-12-20T03:54:53;25.30;;;5.22;;
55827;SDS011;41758;51.992;5.890;2023-12-20T03:57:18;17.40;;;4.40;;
55827;SDS011;41758;51.992;5.890;2023-12-20T03:59:44;15.15;;;4.47;;
55827;SDS011;41758;51.992;5.890;2023-12-20T04:02:10;16.58;;;5.00;;
55827;SDS011;41758;51.992;5.890;2023-12-20T04:04:35;14.13;;;4.40;;
55827;SDS011;41758;51.992;5.890;2023-12-20T04:07:01;20.30;;;5.03;;
55827;SDS011;41758;51.992;5.890;2023-12-20T04:09:27;18.40;;;5.15;;
55827;SDS011;41758;51.992;5.890;2023-12-20T04:11:52;19.52;;;5.47;;
55827;SDS011;41758;51.992;5.890;2023-12-20T04:14:18;23.63;;;5.40;;
55827;SDS011;41758;51.992;5.890;2023-12-20T04:16:44;20.15;;;5.43;;
55827;SDS011;41758;51.992;5.890;2023-12-20T04:19:09;14.45;;;4.90;;
55827;SDS011;41758;51.992;5.890;2023-12-20T04:21:35;24.08;;;5.97;;
55827;SDS011;41758;51.992;5.890;2023-12-20T04:24:01;19.20;;;5.53;;
55827;SDS011;41758;51.992;5.890;2023-12-20T04:26:26;20.02;;;5.57;;
55827;SDS011;41758;51.992;5.890;2023-12-20T04:28:52;19.67;;;5.35;;
55827;SDS011;41758;51.992;5.890;2023-12-20T04:31:18;15.82;;;4.28;;
55827;SDS011;41758;51.992;5.890;2023-12-20T04:33:43;15.27;;;4.38;;
55827;SDS011;41758;51.992;5.890;2023-12-20T04:36:09;16.13;;;4.32;;
55827;SDS011;41758;51.992;5.890;2023-12-20T04:38:35;18.17;;;4.50;;
55827;SDS011;41758;51.992;5.890;2023-12-20T04:41:00;18.45;;;4.30;;
55827;SDS011;41758;51.992;5.890;2023-12-20T04:43:26;21.65;;;5.50;;
55827;SDS011;41758;51.992;5.890;2023-12-20T04:45:52;18.27;;;5.00;;
55827;SDS011;41758;51.992;5.890;2023-12-20T04:48:17;19.85;;;5.13;;
55827;SDS011;41758;51.992;5.890;2023-12-20T04:50:43;18.55;;;5.18;;
55827;SDS011;41758;51.992;5.890;2023-12-20T04:53:09;28.92;;;5.60;;
55827;SDS011;41758;51.992;5.890;2023-12-20T04:55:35;17.25;;;4.82;;
55827;SDS011;41758;51.992;5.890;2023-12-20T04:58:01;27.27;;;5.63;;
55827;SDS011;41758;51.992;5.890;2023-12-20T05:00:27;28.23;;;5.05;;
55827;SDS011;41758;51.992;5.890;2023-12-20T05:02:53;22.13;;;5.07;;
55827;SDS011;41758;51.992;5.890;2023-12-20T05:05:19;19.20;;;4.35;;
55827;SDS011;41758;51.992;5.890;2023-12-20T05:07:45;14.75;;;4.07;;
55827;SDS011;41758;51.992;5.890;2023-12-20T05:10:11;19.98;;;4.57;;
55827;SDS011;41758;51.992;5.890;2023-12-20T05:12:36;15.77;;;4.03;;
55827;SDS011;41758;51.992;5.890;2023-12-20T05:15:02;15.65;;;4.22;;
55827;SDS011;41758;51.992;5.890;2023-12-20T05:17:29;16.35;;;4.32;;
55827;SDS011;41758;51.992;5.890;2023-12-20T05:19:55;18.38;;;5.22;;
55827;SDS011;41758;51.992;5.890;2023-12-20T05:22:20;23.45;;;6.22;;
55827;SDS011;41758;51.992;5.890;2023-12-20T05:24:46;23.10;;;4.88;;
55827;SDS011;41758;51.992;5.890;2023-12-20T05:27:12;18.73;;;4.85;;
55827;SDS011;41758;51.992;5.890;2023-12-20T05:29:38;17.63;;;4.90;;
55827;SDS011;41758;51.992;5.890;2023-12-20T05:32:03;19.15;;;5.25;;
55827;SDS011;41758;51.992;5.890;2023-12-20T05:34:30;16.83;;;3.92;;
55827;SDS011;41758;51.992;5.890;2023-12-20T05:36:56;20.02;;;4.43;;
55827;SDS011;41758;51.992;5.890;2023-12-20T05:39:22;22.75;;;4.55;;
55827;SDS011;41758;51.992;5.890;2023-12-20T05:41:48;15.80;;;4.22;;
55827;SDS011;41758;51.992;5.890;2023-12-20T05:44:13;18.58;;;5.13;;
55827;SDS011;41758;51.992;5.890;2023-12-20T05:46:39;20.95;;;4.80;;
55827;SDS011;41758;51.992;5.890;2023-12-20T05:49:05;22.80;;;5.25;;
55827;SDS011;41758;51.992;5.890;2023-12-20T05:51:31;13.88;;;3.78;;
55827;SDS011;41758;51.992;5.890;2023-12-20T05:53:57;15.43;;;4.45;;
55827;SDS011;41758;51.992;5.890;2023-12-20T05:56:23;18.73;;;4.90;;
55827;SDS011;41758;51.992;5.890;2023-12-20T05:58:49;16.88;;;5.00;;
55827;SDS011;41758;51.992;5.890;2023-12-20T06:01:15;16.25;;;4.45;;
55827;SDS011;41758;51.992;5.890;2023-12-20T06:03:42;18.90;;;4.40;;
55827;SDS011;41758;51.992;5.890;2023-12-20T06:06:08;21.73;;;4.57;;
55827;SDS011;41758;51.992;5.890;2023-12-20T06:08:34;15.80;;;4.95;;
55827;SDS011;41758;51.992;5.890;2023-12-20T06:11:01;20.13;;;4.65;;
55827;SDS011;41758;51.992;5.890;2023-12-20T06:13:26;19.98;;;4.78;;
55827;SDS011;41758;51.992;5.890;2023-12-20T06:15:54;20.02;;;4.75;;
55827;SDS011;41758;51.992;5.890;2023-12-20T06:18:20;20.52;;;4.35;;
55827;SDS011;41758;51.992;5.890;2023-12-20T06:20:46;14.82;;;3.90;;
55827;SDS011;41758;51.992;5.890;2023-12-20T06:23:12;16.08;;;3.85;;
55827;SDS011;41758;51.992;5.890;2023-12-20T06:25:37;25.63;;;4.65;;
55827;SDS011;41758;51.992;5.890;2023-12-20T06:28:04;18.02;;;4.18;;
55827;SDS011;41758;51.992;5.890;2023-12-20T06:30:30;20.38;;;4.38;;
55827;SDS011;41758;51.992;5.890;2023-12-20T06:32:57;18.52;;;4.80;;
55827;SDS011;41758;51.992;5.890;2023-12-20T06:35:23;14.90;;;3.75;;
55827;SDS011;41758;51.992;5.890;2023-12-20T06:37:49;16.98;;;4.20;;
55827;SDS011;41758;51.992;5.890;2023-12-20T06:40:15;24.63;;;4.82;;
55827;SDS011;41758;51.992;5.890;2023-12-20T06:42:41;16.02;;;4.07;;
55827;SDS011;41758;51.992;5.890;2023-12-20T06:45:07;22.65;;;4.63;;
55827;SDS011;41758;51.992;5.890;2023-12-20T06:47:33;14.85;;;4.32;;
55827;SDS011;41758;51.992;5.890;2023-12-20T06:49:59;17.98;;;4.45;;
55827;SDS011;41758;51.992;5.890;2023-12-20T06:52:25;22.90;;;5.25;;
55827;SDS011;41758;51.992;5.890;2023-12-20T06:54:51;17.77;;;4.18;;
55827;SDS011;41758;51.992;5.890;2023-12-20T06:57:17;14.25;;;4.30;;
55827;SDS011;41758;51.992;5.890;2023-12-20T06:59:44;19.58;;;4.28;;
55827;SDS011;41758;51.992;5.890;2023-12-20T07:02:10;18.10;;;4.57;;
55827;SDS011;41758;51.992;5.890;2023-12-20T07:04:39;18.70;;;5.07;;
55827;SDS011;41758;51.992;5.890;2023-12-20T07:07:05;17.70;;;4.63;;
55827;SDS011;41758;51.992;5.890;2023-12-20T07:09:32;21.13;;;5.07;;
55827;SDS011;41758;51.992;5.890;2023-12-20T07:11:58;26.08;;;5.00;;
55827;SDS011;41758;51.992;5.890;2023-12-20T07:14:24;25.92;;;5.53;;
55827;SDS011;41758;51.992;5.890;2023-12-20T07:16:50;22.25;;;4.95;;
55827;SDS011;41758;51.992;5.890;2023-12-20T07:19:16;16.73;;;4.57;;
55827;SDS011;41758;51.992;5.890;2023-12-20T07:21:41;18.40;;;4.75;;
55827;SDS011;41758;51.992;5.890;2023-12-20T07:24:07;21.10;;;5.20;;
55827;SDS011;41758;51.992;5.890;2023-12-20T07:26:33;18.08;;;5.07;;
55827;SDS011;41758;51.992;5.890;2023-12-20T07:28:59;20.05;;;4.78;;
55827;SDS011;41758;51.992;5.890;2023-12-20T07:31:24;16.20;;;4.38;;
55827;SDS011;41758;51.992;5.890;2023-12-20T07:33:50;18.65;;;4.70;;
55827;SDS011;41758;51.992;5.890;2023-12-20T07:36:16;17.88;;;4.47;;
55827;SDS011;41758;51.992;5.890;2023-12-20T07:38:42;15.02;;;4.10;;
55827;SDS011;41758;51.992;5.890;2023-12-20T07:41:09;24.30;;;5.32;;
55827;SDS011;41758;51.992;5.890;2023-12-20T07:43:35;22.00;;;4.90;;
55827;SDS011;41758;51.992;5.890;2023-12-20T07:46:08;19.77;;;4.90;;
55827;SDS011;41758;51.992;5.890;2023-12-20T07:48:34;17.63;;;5.00;;
55827;SDS011;41758;51.992;5.890;2023-12-20T07:51:01;25.42;;;5.13;;
55827;SDS011;41758;51.992;5.890;2023-12-20T07:53:27;24.77;;;4.85;;
55827;SDS011;41758;51.992;5.890;2023-12-20T07:55:52;25.73;;;5.40;;
55827;SDS011;41758;51.992;5.890;2023-12-20T07:58:18;21.52;;;4.75;;
55827;SDS011;41758;51.992;5.890;2023-12-20T08:00:45;15.95;;;4.65;;
55827;SDS011;41758;51.992;5.890;2023-12-20T08:03:11;22.17;;;5.28;;
55827;SDS011;41758;51.992;5.890;2023-12-20T08:05:36;19.38;;;5.00;;
55827;SDS011;41758;51.992;5.890;2023-12-20T08:08:05;23.35;;;5.25;;
55827;SDS011;41758;51.992;5.890;2023-12-20T08:10:31;19.92;;;5.15;;
55827;SDS011;41758;51.992;5.890;2023-12-20T08:12:57;16.90;;;4.78;;
55827;SDS011;41758;51.992;5.890;2023-12-20T08:15:23;19.50;;;5.18;;
55827;SDS011;41758;51.992;5.890;2023-12-20T08:17:48;20.15;;;4.88;;
55827;SDS011;41758;51.992;5.890;2023-12-20T08:20:16;23.08;;;5.45;;
55827;SDS011;41758;51.992;5.890;2023-12-20T08:22:42;24.02;;;5.45;;
55827;SDS011;41758;51.992;5.890;2023-12-20T08:25:08;19.27;;;4.70;;
55827;SDS011;41758;51.992;5.890;2023-12-20T08:27:34;17.90;;;4.82;;
55827;SDS011;41758;51.992;5.890;2023-12-20T08:30:05;18.73;;;5.07;;
55827;SDS011;41758;51.992;5.890;2023-12-20T08:32:31;22.27;;;5.57;;
55827;SDS011;41758;51.992;5.890;2023-12-20T08:34:57;26.55;;;5.55;;
55827;SDS011;41758;51.992;5.890;2023-12-20T08:37:23;24.48;;;5.22;;
55827;SDS011;41758;51.992;5.890;2023-12-20T08:39:49;19.95;;;4.95;;
55827;SDS011;41758;51.992;5.890;2023-12-20T08:42:14;13.45;;;4.18;;
55827;SDS011;41758;51.992;5.890;2023-12-20T08:44:40;21.52;;;5.00;;
55827;SDS011;41758;51.992;5.890;2023-12-20T08:47:06;24.50;;;4.95;;
55827;SDS011;41758;51.992;5.890;2023-12-20T08:49:31;19.63;;;4.75;;
55827;SDS011;41758;51.992;5.890;2023-12-20T08:51:57;18.75;;;5.00;;
55827;SDS011;41758;51.992;5.890;2023-12-20T08:54:23;15.55;;;4.68;;
55827;SDS011;41758;51.992;5.890;2023-12-20T08:56:48;19.25;;;4.90;;
55827;SDS011;41758;51.992;5.890;2023-12-20T08:59:14;21.13;;;4.30;;
55827;SDS011;41758;51.992;5.890;2023-12-20T09:01:39;17.52;;;4.72;;
55827;SDS011;41758;51.992;5.890;2023-12-20T09:04:05;19.88;;;4.15;;
55827;SDS011;41758;51.992;5.890;2023-12-20T09:06:31;19.50;;;4.70;;
55827;SDS011;41758;51.992;5.890;2023-12-20T09:08:57;17.23;;;4.20;;
55827;SDS011;41758;51.992;5.890;2023-12-20T09:11:22;14.40;;;4.03;;
55827;SDS011;41758;51.992;5.890;2023-12-20T09:13:48;17.90;;;4.22;;
55827;SDS011;41758;51.992;5.890;2023-12-20T09:16:15;21.15;;;5.40;;
55827;SDS011;41758;51.992;5.890;2023-12-20T09:18:42;17.15;;;4.22;;
55827;SDS011;41758;51.992;5.890;2023-12-20T09:21:07;28.88;;;5.25;;
55827;SDS011;41758;51.992;5.890;2023-12-20T09:23:33;18.52;;;4.68;;
55827;SDS011;41758;51.992;5.890;2023-12-20T09:25:59;25.15;;;4.82;;
55827;SDS011;41758;51.992;5.890;2023-12-20T09:28:24;20.67;;;4.85;;
55827;SDS011;41758;51.992;5.890;2023-12-20T09:30:50;16.65;;;3.90;;
55827;SDS011;41758;51.992;5.890;2023-12-20T09:33:16;19.67;;;4.50;;
55827;SDS011;41758;51.992;5.890;2023-12-20T09:35:42;17.77;;;4.40;;
55827;SDS011;41758;51.992;5.890;2023-12-20T09:38:07;19.42;;;4.82;;
55827;SDS011;41758;51.992;5.890;2023-12-20T09:40:33;20.92;;;4.70;;
55827;SDS011;41758;51.992;5.890;2023-12-20T09:45:33;13.90;;;4.13;;
55827;SDS011;41758;51.992;5.890;2023-12-20T09:47:59;25.73;;;5.32;;
55827;SDS011;41758;51.992;5.890;2023-12-20T09:50:26;16.55;;;4.25;;
55827;SDS011;41758;51.992;5.890;2023-12-20T09:52:53;13.15;;;3.80;;
55827;SDS011;41758;51.992;5.890;2023-12-20T09:55:21;20.40;;;4.40;;
55827;SDS011;41758;51.992;5.890;2023-12-20T09:57:47;24.65;;;4.88;;
55827;SDS011;41758;51.992;5.890;2023-12-20T10:00:14;15.23;;;3.90;;
55827;SDS011;41758;51.992;5.890;2023-12-20T10:05:25;23.00;;;4.78;;
55827;SDS011;41758;51.992;5.890;2023-12-20T10:07:53;15.93;;;4.50;;
55827;SDS011;41758;51.992;5.890;2023-12-20T10:10:18;16.33;;;4.15;;
55827;SDS011;41758;51.992;5.890;2023-12-20T10:15:36;19.45;;;5.25;;
55827;SDS011;41758;51.992;5.890;2023-12-20T10:18:03;17.73;;;4.43;;
55827;SDS011;41758;51.992;5.890;2023-12-20T10:20:30;16.40;;;4.68;;
55827;SDS011;41758;51.992;5.890;2023-12-20T10:22:57;19.73;;;4.93;;
55827;SDS011;41758;51.992;5.890;2023-12-20T10:25:24;18.52;;;5.25;;
55827;SDS011;41758;51.992;5.890;2023-12-20T10:27:50;19.98;;;4.80;;
55827;SDS011;41758;51.992;5.890;2023-12-20T10:30:37;17.38;;;4.68;;
55827;SDS011;41758;51.992;5.890;2023-12-20T10:33:04;16.77;;;4.82;;
55827;SDS011;41758;51.992;5.890;2023-12-20T10:35:32;15.63;;;4.75;;
55827;SDS011;41758;51.992;5.890;2023-12-20T10:37:57;19.40;;;5.50;;
55827;SDS011;41758;51.992;5.890;2023-12-20T10:40:28;19.52;;;4.82;;
55827;SDS011;41758;51.992;5.890;2023-12-20T10:42:55;16.52;;;4.25;;
55827;SDS011;41758;51.992;5.890;2023-12-20T10:45:21;14.90;;;4.25;;
55827;SDS011;41758;51.992;5.890;2023-12-20T10:47:48;20.70;;;4.60;;
55827;SDS011;41758;51.992;5.890;2023-12-20T10:50:15;18.20;;;4.40;;
55827;SDS011;41758;51.992;5.890;2023-12-20T10:52:43;15.65;;;4.63;;
55827;SDS011;41758;51.992;5.890;2023-12-20T10:55:10;17.60;;;4.40;;
55827;SDS011;41758;51.992;5.890;2023-12-20T10:57:36;18.70;;;4.10;;
55827;SDS011;41758;51.992;5.890;2023-12-20T11:00:02;18.65;;;4.75;;
55827;SDS011;41758;51.992;5.890;2023-12-20T11:02:34;18.55;;;4.00;;
55827;SDS011;41758;51.992;5.890;2023-12-20T11:05:06;18.55;;;4.68;;
55827;SDS011;41758;51.992;5.890;2023-12-20T11:07:36;19.00;;;4.53;;
55827;SDS011;41758;51.992;5.890;2023-12-20T11:10:19;20.67;;;5.15;;
55827;SDS011;41758;51.992;5.890;2023-12-20T11:15:17;19.13;;;4.43;;
55827;SDS011;41758;51.992;5.890;2023-12-20T11:17:47;17.25;;;4.30;;
55827;SDS011;41758;51.992;5.890;2023-12-20T11:20:22;16.25;;;4.28;;
55827;SDS011;41758;51.992;5.890;2023-12-20T11:22:52;11.80;;;3.58;;
55827;SDS011;41758;51.992;5.890;2023-12-20T11:25:19;17.23;;;4.20;;
55827;SDS011;41758;51.992;5.890;2023-12-20T11:28:06;15.68;;;4.50;;
55827;SDS011;41758;51.992;5.890;2023-12-20T11:30:42;17.02;;;4.53;;
55827;SDS011;41758;51.992;5.890;2023-12-20T11:33:12;18.50;;;4.90;;
55827;SDS011;41758;51.992;5.890;2023-12-20T11:35:41;15.32;;;4.22;;
55827;SDS011;41758;51.992;5.890;2023-12-20T11:38:10;11.77;;;4.07;;
55827;SDS011;41758;51.992;5.890;2023-12-20T11:40:38;16.58;;;4.28;;
55827;SDS011;41758;51.992;5.890;2023-12-20T11:43:06;16.38;;;3.67;;
55827;SDS011;41758;51.992;5.890;2023-12-20T11:45:31;20.02;;;3.90;;
55827;SDS011;41758;51.992;5.890;2023-12-20T11:47:57;14.48;;;4.07;;
55827;SDS011;41758;51.992;5.890;2023-12-20T11:50:23;13.18;;;4.05;;
55827;SDS011;41758;51.992;5.890;2023-12-20T11:52:50;17.15;;;4.10;;
55827;SDS011;41758;51.992;5.890;2023-12-20T11:55:17;19.92;;;4.30;;
55827;SDS011;41758;51.992;5.890;2023-12-20T11:57:43;16.50;;;4.30;;
55827;SDS011;41758;51.992;5.890;2023-12-20T12:00:10;12.40;;;3.50;;
55827;SDS011;41758;51.992;5.890;2023-12-20T12:02:39;15.60;;;3.67;;
55827;SDS011;41758;51.992;5.890;2023-12-20T12:05:05;13.48;;;3.65;;
55827;SDS011;41758;51.992;5.890;2023-12-20T12:07:31;11.32;;;3.40;;
55827;SDS011;41758;51.992;5.890;2023-12-20T12:09:57;15.48;;;4.13;;
55827;SDS011;41758;51.992;5.890;2023-12-20T12:12:23;13.18;;;3.58;;
55827;SDS011;41758;51.992;5.890;2023-12-20T12:14:50;11.75;;;3.25;;
55827;SDS011;41758;51.992;5.890;2023-12-20T12:17:16;15.60;;;3.53;;
55827;SDS011;41758;51.992;5.890;2023-12-20T12:19:41;16.63;;;3.58;;
55827;SDS011;41758;51.992;5.890;2023-12-20T12:24:42;15.07;;;3.55;;
55827;SDS011;41758;51.992;5.890;2023-12-20T12:27:09;14.65;;;3.63;;
55827;SDS011;41758;51.992;5.890;2023-12-20T12:29:35;17.05;;;4.25;;
55827;SDS011;41758;51.992;5.890;2023-12-20T12:32:04;19.67;;;4.30;;
55827;SDS011;41758;51.992;5.890;2023-12-20T12:34:34;16.00;;;3.60;;
55827;SDS011;41758;51.992;5.890;2023-12-20T12:37:00;14.13;;;3.70;;
55827;SDS011;41758;51.992;5.890;2023-12-20T12:39:26;16.63;;;4.03;;
55827;SDS011;41758;51.992;5.890;2023-12-20T12:41:55;14.55;;;4.15;;
55827;SDS011;41758;51.992;5.890;2023-12-20T12:44:22;14.55;;;3.80;;
55827;SDS011;41758;51.992;5.890;2023-12-20T12:46:51;16.33;;;3.80;;
55827;SDS011;41758;51.992;5.890;2023-12-20T12:49:18;17.35;;;3.80;;
55827;SDS011;41758;51.992;5.890;2023-12-20T12:51:45;15.25;;;3.75;;
55827;SDS011;41758;51.992;5.890;2023-12-20T12:54:10;14.10;;;3.60;;
55827;SDS011;41758;51.992;5.890;2023-12-20T12:56:38;19.83;;;4.03;;
55827;SDS011;41758;51.992;5.890;2023-12-20T12:59:04;19.13;;;4.50;;
55827;SDS011;41758;51.992;5.890;2023-12-20T13:01:31;16.92;;;4.20;;
55827;SDS011;41758;51.992;5.890;2023-12-20T13:03:56;16.60;;;4.10;;
55827;SDS011;41758;51.992;5.890;2023-12-20T13:06:22;19.90;;;3.85;;
55827;SDS011;41758;51.992;5.890;2023-12-20T13:08:48;15.82;;;3.70;;
55827;SDS011;41758;51.992;5.890;2023-12-20T13:11:14;18.15;;;3.67;;
55827;SDS011;41758;51.992;5.890;2023-12-20T13:13:40;12.57;;;3.92;;
55827;SDS011;41758;51.992;5.890;2023-12-20T13:16:06;14.70;;;3.58;;
55827;SDS011;41758;51.992;5.890;2023-12-20T13:18:32;15.77;;;3.75;;
55827;SDS011;41758;51.992;5.890;2023-12-20T13:20:58;13.05;;;3.10;;
55827;SDS011;41758;51.992;5.890;2023-12-20T13:23:24;15.57;;;3.63;;
55827;SDS011;41758;51.992;5.890;2023-12-20T13:25:49;15.32;;;4.03;;
55827;SDS011;41758;51.992;5.890;2023-12-20T13:28:15;14.93;;;3.55;;
55827;SDS011;41758;51.992;5.890;2023-12-20T13:30:41;10.50;;;3.25;;
55827;SDS011;41758;51.992;5.890;2023-12-20T13:33:06;16.13;;;3.60;;
55827;SDS011;41758;51.992;5.890;2023-12-20T13:35:33;14.73;;;3.85;;
55827;SDS011;41758;51.992;5.890;2023-12-20T13:37:59;14.43;;;3.45;;
55827;SDS011;41758;51.992;5.890;2023-12-20T13:40:25;18.00;;;3.80;;
55827;SDS011;41758;51.992;5.890;2023-12-20T13:42:51;11.63;;;3.65;;
55827;SDS011;41758;51.992;5.890;2023-12-20T13:45:17;12.82;;;3.50;;
55827;SDS011;41758;51.992;5.890;2023-12-20T13:47:42;16.35;;;4.07;;
55827;SDS011;41758;51.992;5.890;2023-12-20T13:50:08;16.52;;;3.80;;
55827;SDS011;41758;51.992;5.890;2023-12-20T13:52:34;17.13;;;4.53;;
55827;SDS011;41758;51.992;5.890;2023-12-20T13:55:01;13.90;;;3.53;;
55827;SDS011;41758;51.992;5.890;2023-12-20T13:57:27;10.73;;;2.88;;
55827;SDS011;41758;51.992;5.890;2023-12-20T13:59:54;18.08;;;4.15;;
55827;SDS011;41758;51.992;5.890;2023-12-20T14:02:22;13.60;;;3.40;;
55827;SDS011;41758;51.992;5.890;2023-12-20T14:04:48;12.13;;;3.50;;
55827;SDS011;41758;51.992;5.890;2023-12-20T14:07:14;15.23;;;3.55;;
55827;SDS011;41758;51.992;5.890;2023-12-20T14:09:40;16.58;;;3.88;;
55827;SDS011;41758;51.992;5.890;2023-12-20T14:12:11;19.02;;;4.10;;
55827;SDS011;41758;51.992;5.890;2023-12-20T14:14:37;13.73;;;3.63;;
55827;SDS011;41758;51.992;5.890;2023-12-20T14:17:03;16.80;;;3.50;;
55827;SDS011;41758;51.992;5.890;2023-12-20T14:19:29;13.85;;;3.30;;
55827;SDS011;41758;51.992;5.890;2023-12-20T14:21:54;17.45;;;4.32;;
55827;SDS011;41758;51.992;5.890;2023-12-20T14:24:20;14.15;;;3.50;;
55827;SDS011;41758;51.992;5.890;2023-12-20T14:26:46;17.70;;;4.07;;
55827;SDS011;41758;51.992;5.890;2023-12-20T14:29:11;11.25;;;3.20;;
55827;SDS011;41758;51.992;5.890;2023-12-20T14:31:37;12.52;;;3.42;;
55827;SDS011;41758;51.992;5.890;2023-12-20T14:34:04;11.95;;;2.95;;
55827;SDS011;41758;51.992;5.890;2023-12-20T14:36:30;13.63;;;3.40;;
55827;SDS011;41758;51.992;5.890;2023-12-20T14:38:56;11.13;;;3.10;;
55827;SDS011;41758;51.992;5.890;2023-12-20T14:41:22;15.18;;;3.67;;
55827;SDS011;41758;51.992;5.890;2023-12-20T14:43:49;17.33;;;3.72;;